createdAt,value
2022-12-15T00:05:00.991Z,-7.42
2022-12-15T00:10:21.380Z,-7.29
2022-12-15T00:15:41.647Z,-7.29
2022-12-15T00:21:01.901Z,-7.41
2022-12-15T00:26:23.928Z,-7.44
2022-12-15T00:31:44.980Z,-7.68
2022-12-15T00:37:05.397Z,-7.28
2022-12-15T00:42:08.344Z,-7.71
2022-12-15T00:47:09.926Z,-7.81
2022-12-15T00:52:31.514Z,-7.67
2022-12-15T00:57:51.675Z,-7.93
2022-12-15T01:03:12.065Z,-7.68
2022-12-15T01:08:32.482Z,-7.77
2022-12-15T01:13:52.604Z,-7.97
2022-12-15T01:19:15.054Z,-7.81
2022-12-15T01:24:16.817Z,-7.96
2022-12-15T01:29:18.388Z,-7.92
2022-12-15T01:34:20.310Z,-7.98
2022-12-15T01:39:22.288Z,-8.02
2022-12-15T01:44:24.656Z,-8.04
2022-12-15T01:49:31.406Z,-8.16
2022-12-15T01:54:41.067Z,-8.53
2022-12-15T01:59:50.889Z,-8.45
2022-12-15T02:04:56.670Z,-8.43
2022-12-15T02:10:01.808Z,-8.22
2022-12-15T02:15:25.106Z,-8.24
2022-12-15T02:20:40.861Z,-8.29
2022-12-15T02:26:06.742Z,-8.43
2022-12-15T02:31:35.132Z,-8.17
2022-12-15T02:36:43.159Z,-8.13
2022-12-15T02:41:47.312Z,-8.18
2022-12-15T02:47:16.530Z,-8.61
2022-12-15T02:52:42.407Z,-8.59
2022-12-15T02:58:10.711Z,-8.24
2022-12-15T03:03:20.416Z,-7.97
2022-12-15T03:08:22.575Z,-8.16
2022-12-15T03:13:25.644Z,-8.32
2022-12-15T03:18:27.355Z,-8.15
2022-12-15T03:23:30.198Z,-8.00
2022-12-15T03:28:33.355Z,-7.95
2022-12-15T03:33:35.304Z,-8.18
2022-12-15T03:38:37.077Z,-8.05
2022-12-15T03:43:38.623Z,-7.94
2022-12-15T03:48:40.315Z,-7.95
2022-12-15T03:53:42.095Z,-8.26
2022-12-15T03:58:43.948Z,-8.27
2022-12-15T04:03:45.575Z,-8.23
2022-12-15T04:08:49.907Z,-8.22
2022-12-15T04:13:51.816Z,-8.16
2022-12-15T04:19:13.292Z,-8.07
2022-12-15T04:24:33.559Z,-8.06
2022-12-15T04:29:53.839Z,-8.20
2022-12-15T04:35:13.965Z,-8.06
2022-12-15T04:40:34.151Z,-8.07
2022-12-15T04:45:54.341Z,-8.08
2022-12-15T04:51:15.233Z,-8.20
2022-12-15T04:56:35.549Z,-8.22
2022-12-15T05:01:55.842Z,-8.36
2022-12-15T05:07:16.642Z,-8.16
2022-12-15T05:12:36.911Z,-8.11
2022-12-15T05:17:57.270Z,-8.21
2022-12-15T05:23:17.602Z,-8.49
2022-12-15T05:28:37.802Z,-8.45
2022-12-15T05:33:39.497Z,-8.23
2022-12-15T05:38:41.107Z,-8.41
2022-12-15T05:43:45.565Z,-8.35
2022-12-15T05:48:47.430Z,-8.22
2022-12-15T05:53:49.046Z,-8.13
2022-12-15T05:58:50.568Z,-8.31
2022-12-15T06:03:52.166Z,-8.13
2022-12-15T06:08:54.224Z,-7.92
2022-12-15T06:13:56.350Z,-7.93
2022-12-15T06:19:00.864Z,-7.87
2022-12-15T06:24:06.537Z,-7.97
2022-12-15T06:29:11.058Z,-7.89
2022-12-15T06:34:16.001Z,-7.87
2022-12-15T06:39:17.566Z,-7.88
2022-12-15T06:44:20.534Z,-7.98
2022-12-15T06:49:22.239Z,-7.86
2022-12-15T06:54:24.203Z,-7.84
2022-12-15T06:59:26.079Z,-7.72
2022-12-15T07:04:27.807Z,-7.83
2022-12-15T07:09:29.566Z,-7.66
2022-12-15T07:14:31.131Z,-7.78
2022-12-15T07:19:32.825Z,-7.87
2022-12-15T07:24:34.340Z,-7.90
2022-12-15T07:29:36.015Z,-7.78
2022-12-15T07:34:37.529Z,-8.01
2022-12-15T07:39:39.436Z,-7.86
2022-12-15T07:44:40.945Z,-7.83
2022-12-15T07:49:42.530Z,-7.78
2022-12-15T07:54:45.340Z,-7.73
2022-12-15T07:59:47.515Z,-7.71
2022-12-15T08:04:49.180Z,-7.67
2022-12-15T08:09:50.878Z,-7.61
2022-12-15T08:14:52.489Z,-7.47
2022-12-15T08:19:58.643Z,-7.48
2022-12-15T08:25:00.553Z,-7.29
2022-12-15T08:30:02.297Z,-7.21
2022-12-15T08:35:04.117Z,-7.10
2022-12-15T08:40:07.069Z,-7.01
2022-12-15T08:45:09.300Z,-6.89
2022-12-15T08:50:10.891Z,-6.76
2022-12-15T08:55:15.610Z,-6.68
2022-12-15T09:00:22.611Z,-6.50
2022-12-15T09:05:25.235Z,-6.39
2022-12-15T09:10:26.860Z,-6.29
2022-12-15T09:15:59.891Z,-6.21
2022-12-15T09:20:50.469Z,-5.96
2022-12-15T09:25:58.725Z,-5.89
2022-12-15T09:31:21.266Z,-5.72
2022-12-15T09:36:23.691Z,-5.66
2022-12-15T09:41:29.980Z,-5.48
2022-12-15T09:46:53.324Z,-5.36
2022-12-15T09:52:10.637Z,-5.17
2022-12-15T09:57:42.984Z,-4.99
2022-12-15T10:03:12.928Z,-4.97
2022-12-15T10:08:15.566Z,-4.86
2022-12-15T10:13:59.004Z,-4.79
2022-12-15T10:19:17.285Z,-4.57
2022-12-15T10:24:44.285Z,-4.38
2022-12-15T10:30:00.519Z,-4.22
2022-12-15T10:35:08.508Z,-4.06
2022-12-15T10:40:15.326Z,-3.75
2022-12-15T10:45:35.807Z,-3.14
2022-12-15T10:50:37.500Z,-2.74
2022-12-15T10:55:41.968Z,-2.71
2022-12-15T11:00:43.754Z,-2.48
2022-12-15T11:05:56.452Z,-2.39
2022-12-15T11:11:17.702Z,-2.10
2022-12-15T11:16:19.916Z,-2.29
2022-12-15T11:21:28.025Z,-1.96
2022-12-15T11:26:48.897Z,-1.95
2022-12-15T11:31:52.353Z,-1.43
2022-12-15T11:37:43.406Z,-1.38
2022-12-15T11:43:20.063Z,-1.26
2022-12-15T11:48:27.802Z,-1.41
2022-12-15T11:53:55.361Z,-0.91
2022-12-15T11:59:09.558Z,-1.10
2022-12-15T12:04:28.694Z,-0.70
2022-12-15T12:09:48.738Z,-0.77
2022-12-15T12:14:59.174Z,-0.68
2022-12-15T12:20:11.226Z,-0.67
2022-12-15T12:25:21.017Z,-0.73
2022-12-15T12:30:27.955Z,-1.00
2022-12-15T12:35:41.428Z,-0.89
2022-12-15T12:41:04.078Z,-0.49
2022-12-15T12:46:15.374Z,0.04
2022-12-15T12:51:27.454Z,-0.01
2022-12-15T12:56:50.413Z,0.07
2022-12-15T13:01:52.398Z,0.55
2022-12-15T13:12:59.436Z,0.08
2022-12-15T13:18:20.630Z,0.27
2022-12-15T13:23:22.308Z,-0.30
2022-12-15T13:28:30.086Z,-0.07
2022-12-15T13:33:53.572Z,-0.13
2022-12-15T13:38:56.155Z,-0.26
2022-12-15T13:44:00.407Z,-0.23
2022-12-15T13:49:14.091Z,-0.46
2022-12-15T13:54:21.730Z,-0.57
2022-12-15T13:59:30.976Z,-0.94
2022-12-15T14:04:32.728Z,-0.88
2022-12-15T14:09:38.371Z,-0.79
2022-12-15T14:14:46.629Z,-0.66
2022-12-15T14:25:18.657Z,-0.72
2022-12-15T14:30:33.164Z,-0.68
2022-12-15T14:35:42.529Z,-0.88
2022-12-15T14:40:46.872Z,-1.05
2022-12-15T14:46:05.756Z,-1.40
2022-12-15T14:51:13.049Z,-1.66
2022-12-15T14:56:27.550Z,-1.75
2022-12-15T15:01:31.518Z,-1.79
2022-12-15T15:03:11.638Z,-0.72
2022-12-15T15:03:12.254Z,-0.12
2022-12-15T15:06:37.029Z,-1.78
2022-12-15T15:11:42.642Z,-1.97
2022-12-15T15:17:19.047Z,-2.07
2022-12-15T15:22:38.793Z,-2.45
2022-12-15T15:27:48.142Z,-2.53
2022-12-15T15:32:58.070Z,-2.52
2022-12-15T15:38:07.554Z,-2.74
2022-12-15T15:43:14.277Z,-3.02
2022-12-15T15:48:25.225Z,-3.09
2022-12-15T15:53:29.249Z,-2.85
2022-12-15T15:58:31.266Z,-2.83
2022-12-15T16:03:34.923Z,-2.99
2022-12-15T16:08:37.237Z,-3.10
2022-12-15T16:13:41.739Z,-3.20
2022-12-15T16:18:43.322Z,-3.31
2022-12-15T16:23:47.461Z,-3.44
2022-12-15T16:28:49.306Z,-3.83
2022-12-15T16:33:50.873Z,-3.90
2022-12-15T16:38:53.278Z,-4.00
2022-12-15T16:43:54.818Z,-4.13
2022-12-15T16:48:56.370Z,-4.16
2022-12-15T16:53:58.287Z,-4.18
2022-12-15T16:59:23.778Z,-4.17
2022-12-15T17:04:22.604Z,-4.18
2022-12-15T17:09:25.750Z,-4.04
2022-12-15T17:14:27.572Z,-4.12
2022-12-15T17:19:29.264Z,-4.23
2022-12-15T17:24:30.868Z,-4.32
2022-12-15T17:29:32.884Z,-4.55
2022-12-15T17:34:34.805Z,-4.78
2022-12-15T17:39:36.611Z,-4.87
2022-12-15T17:44:39.900Z,-4.71
2022-12-15T17:49:41.884Z,-4.59
2022-12-15T17:54:44.133Z,-4.60
2022-12-15T17:59:45.859Z,-4.79
2022-12-15T18:04:47.416Z,-5.00
2022-12-15T18:09:51.039Z,-5.07
2022-12-15T18:14:53.650Z,-5.00
2022-12-15T18:19:58.132Z,-4.83
2022-12-15T18:24:59.844Z,-4.93
2022-12-15T18:30:01.437Z,-4.83
2022-12-15T18:35:15.085Z,-4.96
2022-12-15T18:40:18.410Z,-5.02
2022-12-15T18:45:28.059Z,-4.93
2022-12-15T18:50:30.570Z,-5.04
2022-12-15T18:55:32.183Z,-4.96
2022-12-15T19:00:34.490Z,-5.02
2022-12-15T19:05:37.320Z,-5.12
2022-12-15T19:10:57.202Z,-5.24
2022-12-15T19:16:00.105Z,-5.28
2022-12-15T19:21:47.995Z,-5.43
2022-12-15T19:26:49.556Z,-5.23
2022-12-15T19:31:52.005Z,-5.22
2022-12-15T19:36:53.625Z,-5.39
2022-12-15T19:41:55.192Z,-5.45
2022-12-15T19:46:57.415Z,-5.49
2022-12-15T19:51:59.282Z,-5.63
2022-12-15T19:57:37.858Z,-5.50
2022-12-15T20:02:39.878Z,-5.70
2022-12-15T20:07:42.458Z,-5.58
2022-12-15T20:12:44.568Z,-5.90
2022-12-15T20:17:47.158Z,-5.86
2022-12-15T20:23:50.789Z,-5.75
2022-12-15T20:28:54.498Z,-6.03
2022-12-15T20:33:56.177Z,-5.97
2022-12-15T20:45:32.098Z,-6.18
2022-12-15T20:50:41.106Z,-5.92
2022-12-15T20:55:43.508Z,-6.05
2022-12-15T21:00:46.344Z,-6.00
2022-12-15T21:05:49.452Z,-6.10
2022-12-15T21:10:52.823Z,-6.18
2022-12-15T21:15:54.849Z,-6.12
2022-12-15T21:20:58.863Z,-6.27
2022-12-15T21:26:01.866Z,-6.24
2022-12-15T21:31:03.631Z,-6.15
2022-12-15T21:36:05.477Z,-6.26
2022-12-15T21:41:15.760Z,-6.45
2022-12-15T21:46:20.580Z,-6.66
2022-12-15T21:51:26.916Z,-6.73
2022-12-15T21:56:28.974Z,-7.20
2022-12-15T22:01:31.733Z,-6.91
2022-12-15T22:06:33.434Z,-6.54
2022-12-15T22:11:35.137Z,-6.20
2022-12-15T22:16:37.160Z,-6.08
2022-12-15T22:21:39.051Z,-5.98
2022-12-15T22:26:41.718Z,-5.82
2022-12-15T22:31:43.596Z,-5.53
2022-12-15T22:36:45.742Z,-5.36
2022-12-15T22:41:50.827Z,-5.26
2022-12-15T22:46:54.685Z,-5.15
2022-12-15T22:51:56.424Z,-5.06
2022-12-15T22:57:05.316Z,-4.97
2022-12-15T23:02:09.257Z,-4.82
2022-12-15T23:07:15.407Z,-4.75
2022-12-15T23:12:17.178Z,-4.80
2022-12-15T23:17:18.872Z,-4.78
2022-12-15T23:22:20.406Z,-4.67
2022-12-15T23:27:22.066Z,-4.59
2022-12-15T23:32:23.779Z,-4.48
2022-12-15T23:37:25.393Z,-4.33
2022-12-15T23:42:27.510Z,-4.26
2022-12-15T23:47:29.264Z,-4.19
2022-12-15T23:52:31.106Z,-4.13
2022-12-15T23:57:34.103Z,-4.05
